Terminal Aerodrome Forecast
Issued by NWS

Home | Current Version | Previous Version | Text Only | Print | Product List | Glossary On
Versions: 1 2 3 4 5 6 7 8 9 10 11 12 13 14
221
FTUS46 KLOX 281347 AAA
TAFSBA
TAF AMD
KSBA 281347Z 2814/2912 VRB03KT 4SM BR OVC003
     FM281530 VRB03KT P6SM OVC006
     FM281700 16008KT P6SM SKC
     FM282100 22008KT P6SM SKC
     FM290400 VRB03KT P6SM SKC
     FM290800 VRB03KT 5SM BR OVC006=

USA.gov is the U.S. government's official web portal to all federal, state and local government web resources and services.